Lionshead Lake, New Jersey
Current Conditions -  °F | °C
As of 9:53 PM on Friday 21 Nov 2014 (Local Time) from KCDW Reporting Station
Clear Clear  
Wind Chill: 23°   Ceiling: Unl
Heat Index: 23°   Visibility: 10mi
Dew Point: 10°   Wind: 0mph
Humidity: 58%   Direction: NA
Pressure: 30.5"   Gusts: NA
Location:  40.9484°N, 74.2449°W
Report Text: KCDW 220253Z AUTO 00000KT 10SM CLR M05/M12 A3050 RMK AO2 SLP337 T10501122 53009 TSNO
Loading
Personal Weather Stations






























Interactive Weather Map New forecast layout! Learn more

10-Day Weather Forecast

Advertisements
Track Severe Weather on mobile